sensor_id;sensor_type;location;lat;lon;timestamp;pressure;altitude;pressure_sealevel;temperature;humidity
16525;BME280;8375;33.594;-117.718;2023-03-17T00:00:48;100383.34;;;15.59;64.59
16525;BME280;8375;33.594;-117.718;2023-03-17T00:03:21;100386.38;;;15.54;63.86
16525;BME280;8375;33.594;-117.718;2023-03-17T00:05:52;100383.84;;;15.44;65.02
16525;BME280;8375;33.594;-117.718;2023-03-17T00:08:24;100381.44;;;15.51;67.20
16525;BME280;8375;33.594;-117.718;2023-03-17T00:10:54;100380.00;;;15.38;66.49
16525;BME280;8375;33.594;-117.718;2023-03-17T00:13:23;100380.56;;;15.42;67.04
16525;BME280;8375;33.594;-117.718;2023-03-17T00:15:53;100374.56;;;15.50;66.45
16525;BME280;8375;33.594;-117.718;2023-03-17T00:18:23;100377.94;;;15.42;64.52
16525;BME280;8375;33.594;-117.718;2023-03-17T00:20:52;100374.63;;;15.40;65.22
16525;BME280;8375;33.594;-117.718;2023-03-17T00:23:24;100375.84;;;15.46;66.73
16525;BME280;8375;33.594;-117.718;2023-03-17T00:25:52;100363.88;;;15.43;65.77
16525;BME280;8375;33.594;-117.718;2023-03-17T00:28:24;100365.44;;;15.36;67.03
16525;BME280;8375;33.594;-117.718;2023-03-17T00:30:54;100361.47;;;15.32;66.03
16525;BME280;8375;33.594;-117.718;2023-03-17T00:33:26;100361.97;;;15.35;67.35
16525;BME280;8375;33.594;-117.718;2023-03-17T00:35:55;100358.78;;;15.42;69.07
16525;BME280;8375;33.594;-117.718;2023-03-17T00:38:27;100372.59;;;15.34;66.90
16525;BME280;8375;33.594;-117.718;2023-03-17T00:40:55;100361.88;;;15.27;68.69
16525;BME280;8375;33.594;-117.718;2023-03-17T00:43:24;100366.72;;;15.22;66.56
16525;BME280;8375;33.594;-117.718;2023-03-17T00:45:53;100368.72;;;15.10;67.00
16525;BME280;8375;33.594;-117.718;2023-03-17T00:48:22;100364.63;;;14.98;67.99
16525;BME280;8375;33.594;-117.718;2023-03-17T00:50:51;100374.34;;;15.05;70.10
16525;BME280;8375;33.594;-117.718;2023-03-17T00:53:20;100380.94;;;15.09;69.91
16525;BME280;8375;33.594;-117.718;2023-03-17T00:55:50;100379.84;;;15.12;69.74
16525;BME280;8375;33.594;-117.718;2023-03-17T00:58:23;100386.03;;;15.11;69.80
16525;BME280;8375;33.594;-117.718;2023-03-17T01:00:54;100389.06;;;15.06;68.54
16525;BME280;8375;33.594;-117.718;2023-03-17T01:03:23;100393.09;;;14.91;69.20
16525;BME280;8375;33.594;-117.718;2023-03-17T01:05:52;100396.16;;;14.76;69.76
16525;BME280;8375;33.594;-117.718;2023-03-17T01:08:22;100395.19;;;14.58;68.86
16525;BME280;8375;33.594;-117.718;2023-03-17T01:10:53;100397.84;;;14.48;70.53
16525;BME280;8375;33.594;-117.718;2023-03-17T01:13:22;100398.66;;;14.38;71.20
16525;BME280;8375;33.594;-117.718;2023-03-17T01:15:52;100408.00;;;14.21;69.57
16525;BME280;8375;33.594;-117.718;2023-03-17T01:18:22;100419.94;;;14.04;71.09
16525;BME280;8375;33.594;-117.718;2023-03-17T01:20:51;100422.38;;;13.86;71.62
16525;BME280;8375;33.594;-117.718;2023-03-17T01:23:20;100417.53;;;13.72;71.18
16525;BME280;8375;33.594;-117.718;2023-03-17T01:25:49;100419.16;;;13.63;73.81
16525;BME280;8375;33.594;-117.718;2023-03-17T01:28:19;100425.88;;;13.56;73.58
16525;BME280;8375;33.594;-117.718;2023-03-17T01:30:48;100433.00;;;13.54;75.08
16525;BME280;8375;33.594;-117.718;2023-03-17T01:33:17;100424.19;;;13.45;74.44
16525;BME280;8375;33.594;-117.718;2023-03-17T01:35:46;100427.16;;;13.40;74.21
16525;BME280;8375;33.594;-117.718;2023-03-17T01:38:15;100430.13;;;13.26;75.31
16525;BME280;8375;33.594;-117.718;2023-03-17T01:40:45;100429.66;;;13.20;74.69
16525;BME280;8375;33.594;-117.718;2023-03-17T01:43:21;100431.97;;;13.14;75.50
16525;BME280;8375;33.594;-117.718;2023-03-17T01:46:25;100439.88;;;13.12;76.43
16525;BME280;8375;33.594;-117.718;2023-03-17T01:49:08;100445.09;;;13.12;77.47
16525;BME280;8375;33.594;-117.718;2023-03-17T01:51:45;100447.16;;;13.09;77.58
16525;BME280;8375;33.594;-117.718;2023-03-17T01:54:17;100448.91;;;13.08;75.95
16525;BME280;8375;33.594;-117.718;2023-03-17T01:56:49;100449.19;;;13.05;77.89
16525;BME280;8375;33.594;-117.718;2023-03-17T01:59:24;100446.13;;;13.00;77.56
16525;BME280;8375;33.594;-117.718;2023-03-17T02:01:58;100447.09;;;12.99;77.78
16525;BME280;8375;33.594;-117.718;2023-03-17T02:04:29;100452.69;;;12.94;77.02
16525;BME280;8375;33.594;-117.718;2023-03-17T02:06:58;100451.41;;;12.88;76.31
16525;BME280;8375;33.594;-117.718;2023-03-17T02:09:27;100444.78;;;12.84;75.64
16525;BME280;8375;33.594;-117.718;2023-03-17T02:11:58;100451.47;;;12.77;77.58
16525;BME280;8375;33.594;-117.718;2023-03-17T02:14:29;100449.00;;;12.75;77.19
16525;BME280;8375;33.594;-117.718;2023-03-17T02:16:58;100448.91;;;12.66;78.03
16525;BME280;8375;33.594;-117.718;2023-03-17T02:19:27;100447.41;;;12.63;78.70
16525;BME280;8375;33.594;-117.718;2023-03-17T02:21:58;100450.00;;;12.63;81.48
16525;BME280;8375;33.594;-117.718;2023-03-17T02:24:31;100454.38;;;12.62;80.22
16525;BME280;8375;33.594;-117.718;2023-03-17T02:27:03;100457.94;;;12.61;80.71
16525;BME280;8375;33.594;-117.718;2023-03-17T02:29:35;100458.81;;;12.51;79.52
16525;BME280;8375;33.594;-117.718;2023-03-17T02:32:05;100473.97;;;12.45;79.53
16525;BME280;8375;33.594;-117.718;2023-03-17T02:34:35;100471.13;;;12.49;80.25
16525;BME280;8375;33.594;-117.718;2023-03-17T02:37:06;100472.91;;;12.48;78.96
16525;BME280;8375;33.594;-117.718;2023-03-17T02:39:36;100482.50;;;12.47;79.33
16525;BME280;8375;33.594;-117.718;2023-03-17T02:42:05;100486.63;;;12.50;81.17
16525;BME280;8375;33.594;-117.718;2023-03-17T02:44:35;100481.78;;;12.45;77.43
16525;BME280;8375;33.594;-117.718;2023-03-17T02:47:05;100488.56;;;12.37;78.78
16525;BME280;8375;33.594;-117.718;2023-03-17T02:49:35;100491.88;;;12.27;78.95
16525;BME280;8375;33.594;-117.718;2023-03-17T02:52:07;100505.16;;;12.24;79.36
16525;BME280;8375;33.594;-117.718;2023-03-17T02:54:36;100498.88;;;12.27;80.75
16525;BME280;8375;33.594;-117.718;2023-03-17T02:57:05;100494.88;;;12.23;80.03
16525;BME280;8375;33.594;-117.718;2023-03-17T02:59:35;100504.34;;;12.24;79.60
16525;BME280;8375;33.594;-117.718;2023-03-17T03:02:04;100510.59;;;12.21;80.14
16525;BME280;8375;33.594;-117.718;2023-03-17T03:04:33;100503.63;;;12.22;79.98
16525;BME280;8375;33.594;-117.718;2023-03-17T03:07:02;100506.34;;;12.20;81.36
16525;BME280;8375;33.594;-117.718;2023-03-17T03:09:33;100505.28;;;12.23;83.09
16525;BME280;8375;33.594;-117.718;2023-03-17T03:12:02;100506.22;;;12.22;83.88
16525;BME280;8375;33.594;-117.718;2023-03-17T03:14:30;100510.59;;;12.21;84.98
16525;BME280;8375;33.594;-117.718;2023-03-17T03:16:59;100507.03;;;12.22;85.34
16525;BME280;8375;33.594;-117.718;2023-03-17T03:19:28;100517.59;;;12.21;84.66
16525;BME280;8375;33.594;-117.718;2023-03-17T03:21:57;100522.66;;;12.22;85.67
16525;BME280;8375;33.594;-117.718;2023-03-17T03:24:27;100525.97;;;12.24;84.52
16525;BME280;8375;33.594;-117.718;2023-03-17T03:26:58;100538.16;;;12.24;85.08
16525;BME280;8375;33.594;-117.718;2023-03-17T03:29:27;100540.06;;;12.22;84.69
16525;BME280;8375;33.594;-117.718;2023-03-17T03:31:56;100539.22;;;12.21;85.46
16525;BME280;8375;33.594;-117.718;2023-03-17T03:34:25;100541.97;;;12.20;86.28
16525;BME280;8375;33.594;-117.718;2023-03-17T03:36:55;100549.63;;;12.21;86.94
16525;BME280;8375;33.594;-117.718;2023-03-17T03:39:25;100550.47;;;12.22;86.37
16525;BME280;8375;33.594;-117.718;2023-03-17T03:41:54;100550.56;;;12.20;85.99
16525;BME280;8375;33.594;-117.718;2023-03-17T03:44:25;100556.50;;;12.11;84.95
16525;BME280;8375;33.594;-117.718;2023-03-17T03:46:54;100563.59;;;12.09;84.21
16525;BME280;8375;33.594;-117.718;2023-03-17T03:49:29;100568.34;;;12.03;85.22
16525;BME280;8375;33.594;-117.718;2023-03-17T03:51:58;100572.72;;;12.03;86.54
16525;BME280;8375;33.594;-117.718;2023-03-17T03:54:29;100579.59;;;12.04;88.34
16525;BME280;8375;33.594;-117.718;2023-03-17T03:56:58;100577.28;;;11.99;87.55
16525;BME280;8375;33.594;-117.718;2023-03-17T03:59:29;100578.47;;;11.95;88.08
16525;BME280;8375;33.594;-117.718;2023-03-17T04:01:59;100586.28;;;11.95;89.29
16525;BME280;8375;33.594;-117.718;2023-03-17T04:04:28;100591.72;;;11.92;89.39
16525;BME280;8375;33.594;-117.718;2023-03-17T04:06:58;100595.41;;;11.89;89.58
16525;BME280;8375;33.594;-117.718;2023-03-17T04:09:28;100602.25;;;11.91;90.80
16525;BME280;8375;33.594;-117.718;2023-03-17T04:11:57;100601.06;;;11.83;90.40
16525;BME280;8375;33.594;-117.718;2023-03-17T04:14:29;100605.78;;;11.78;91.52
16525;BME280;8375;33.594;-117.718;2023-03-17T04:16:59;100606.81;;;11.76;92.08
16525;BME280;8375;33.594;-117.718;2023-03-17T04:19:28;100604.34;;;11.74;91.04
16525;BME280;8375;33.594;-117.718;2023-03-17T04:21:57;100603.97;;;11.67;90.43
16525;BME280;8375;33.594;-117.718;2023-03-17T04:24:26;100601.50;;;11.66;91.78
16525;BME280;8375;33.594;-117.718;2023-03-17T04:26:57;100610.47;;;11.62;92.11
16525;BME280;8375;33.594;-117.718;2023-03-17T04:29:31;100607.63;;;11.53;92.64
16525;BME280;8375;33.594;-117.718;2023-03-17T04:32:00;100604.91;;;11.55;93.53
16525;BME280;8375;33.594;-117.718;2023-03-17T04:34:29;100614.00;;;11.49;94.34
16525;BME280;8375;33.594;-117.718;2023-03-17T04:36:58;100618.47;;;11.47;93.64
16525;BME280;8375;33.594;-117.718;2023-03-17T04:39:27;100618.81;;;11.42;93.49
16525;BME280;8375;33.594;-117.718;2023-03-17T04:41:55;100615.72;;;11.37;94.26
16525;BME280;8375;33.594;-117.718;2023-03-17T04:44:24;100617.25;;;11.28;94.58
16525;BME280;8375;33.594;-117.718;2023-03-17T04:46:55;100627.94;;;11.24;95.39
16525;BME280;8375;33.594;-117.718;2023-03-17T04:49:23;100619.56;;;11.20;96.81
16525;BME280;8375;33.594;-117.718;2023-03-17T04:51:52;100619.66;;;11.19;97.49
16525;BME280;8375;33.594;-117.718;2023-03-17T04:54:21;100622.97;;;11.21;98.04
16525;BME280;8375;33.594;-117.718;2023-03-17T04:56:50;100627.59;;;11.17;98.36
16525;BME280;8375;33.594;-117.718;2023-03-17T04:59:19;100627.81;;;11.14;98.30
16525;BME280;8375;33.594;-117.718;2023-03-17T05:01:48;100623.28;;;11.05;97.48
16525;BME280;8375;33.594;-117.718;2023-03-17T05:04:18;100618.75;;;10.95;98.34
16525;BME280;8375;33.594;-117.718;2023-03-17T05:06:47;100620.00;;;10.90;98.44
16525;BME280;8375;33.594;-117.718;2023-03-17T05:09:17;100627.41;;;10.83;98.88
16525;BME280;8375;33.594;-117.718;2023-03-17T05:11:46;100626.06;;;10.77;98.58
16525;BME280;8375;33.594;-117.718;2023-03-17T05:14:14;100629.81;;;10.73;98.61
16525;BME280;8375;33.594;-117.718;2023-03-17T05:16:46;100632.53;;;10.71;99.95
16525;BME280;8375;33.594;-117.718;2023-03-17T05:19:15;100637.09;;;10.68;100.00
16525;BME280;8375;33.594;-117.718;2023-03-17T05:21:45;100638.88;;;10.67;100.00
16525;BME280;8375;33.594;-117.718;2023-03-17T05:24:14;100636.72;;;10.61;100.00
16525;BME280;8375;33.594;-117.718;2023-03-17T05:26:43;100641.38;;;10.56;100.00
16525;BME280;8375;33.594;-117.718;2023-03-17T05:29:12;100641.72;;;10.51;100.00
16525;BME280;8375;33.594;-117.718;2023-03-17T05:31:40;100640.88;;;10.51;100.00
16525;BME280;8375;33.594;-117.718;2023-03-17T05:34:09;100643.06;;;10.44;100.00
16525;BME280;8375;33.594;-117.718;2023-03-17T05:36:38;100631.31;;;10.38;100.00
16525;BME280;8375;33.594;-117.718;2023-03-17T05:39:08;100636.50;;;10.38;100.00
16525;BME280;8375;33.594;-117.718;2023-03-17T05:41:37;100629.75;;;10.36;100.00
16525;BME280;8375;33.594;-117.718;2023-03-17T05:44:06;100632.78;;;10.30;100.00
16525;BME280;8375;33.594;-117.718;2023-03-17T05:46:35;100624.47;;;10.24;100.00
16525;BME280;8375;33.594;-117.718;2023-03-17T05:49:04;100634.03;;;10.11;100.00
16525;BME280;8375;33.594;-117.718;2023-03-17T05:51:33;100631.66;;;10.08;100.00
16525;BME280;8375;33.594;-117.718;2023-03-17T05:54:02;100634.25;;;10.08;100.00
16525;BME280;8375;33.594;-117.718;2023-03-17T05:56:32;100629.06;;;10.08;100.00
16525;BME280;8375;33.594;-117.718;2023-03-17T05:59:01;100625.75;;;10.06;100.00
16525;BME280;8375;33.594;-117.718;2023-03-17T06:01:30;100624.91;;;10.05;100.00
16525;BME280;8375;33.594;-117.718;2023-03-17T06:03:59;100628.84;;;9.98;100.00
16525;BME280;8375;33.594;-117.718;2023-03-17T06:06:28;100626.56;;;9.93;100.00
16525;BME280;8375;33.594;-117.718;2023-03-17T06:08:56;100627.81;;;9.88;100.00
16525;BME280;8375;33.594;-117.718;2023-03-17T06:11:25;100622.00;;;9.84;100.00
16525;BME280;8375;33.594;-117.718;2023-03-17T06:13:55;100625.94;;;9.77;100.00
16525;BME280;8375;33.594;-117.718;2023-03-17T06:16:24;100633.00;;;9.75;100.00
16525;BME280;8375;33.594;-117.718;2023-03-17T06:18:54;100629.66;;;9.73;100.00
16525;BME280;8375;33.594;-117.718;2023-03-17T06:21:23;100632.34;;;9.71;100.00
16525;BME280;8375;33.594;-117.718;2023-03-17T06:23:51;100628.41;;;9.65;100.00
16525;BME280;8375;33.594;-117.718;2023-03-17T06:26:20;100633.81;;;9.62;100.00
16525;BME280;8375;33.594;-117.718;2023-03-17T06:28:49;100631.69;;;9.54;100.00
16525;BME280;8375;33.594;-117.718;2023-03-17T06:31:21;100626.63;;;9.53;100.00
16525;BME280;8375;33.594;-117.718;2023-03-17T06:33:50;100629.09;;;9.54;100.00
16525;BME280;8375;33.594;-117.718;2023-03-17T06:36:19;100627.75;;;9.49;100.00
16525;BME280;8375;33.594;-117.718;2023-03-17T06:38:49;100628.06;;;9.44;100.00
16525;BME280;8375;33.594;-117.718;2023-03-17T06:41:18;100634.16;;;9.43;100.00
16525;BME280;8375;33.594;-117.718;2023-03-17T06:43:46;100637.28;;;9.35;100.00
16525;BME280;8375;33.594;-117.718;2023-03-17T06:46:15;100639.22;;;9.32;100.00
16525;BME280;8375;33.594;-117.718;2023-03-17T06:48:45;100635.16;;;9.28;100.00
16525;BME280;8375;33.594;-117.718;2023-03-17T06:51:15;100637.94;;;9.24;100.00
16525;BME280;8375;33.594;-117.718;2023-03-17T06:53:43;100633.69;;;9.23;100.00
16525;BME280;8375;33.594;-117.718;2023-03-17T06:56:12;100624.38;;;9.21;100.00
16525;BME280;8375;33.594;-117.718;2023-03-17T06:58:41;100617.72;;;9.17;100.00
16525;BME280;8375;33.594;-117.718;2023-03-17T07:01:11;100627.16;;;9.18;100.00
16525;BME280;8375;33.594;-117.718;2023-03-17T07:03:40;100617.94;;;9.14;100.00
16525;BME280;8375;33.594;-117.718;2023-03-17T07:06:11;100621.34;;;9.14;100.00
16525;BME280;8375;33.594;-117.718;2023-03-17T07:08:39;100612.22;;;9.08;100.00
16525;BME280;8375;33.594;-117.718;2023-03-17T07:11:08;100612.09;;;9.10;100.00
16525;BME280;8375;33.594;-117.718;2023-03-17T07:13:37;100624.13;;;9.11;100.00
16525;BME280;8375;33.594;-117.718;2023-03-17T07:16:06;100618.31;;;9.07;100.00
16525;BME280;8375;33.594;-117.718;2023-03-17T07:18:50;100622.22;;;9.00;100.00
16525;BME280;8375;33.594;-117.718;2023-03-17T07:21:18;100623.25;;;8.98;100.00
16525;BME280;8375;33.594;-117.718;2023-03-17T07:23:47;100623.63;;;8.91;100.00
16525;BME280;8375;33.594;-117.718;2023-03-17T07:26:16;100624.66;;;8.89;100.00
16525;BME280;8375;33.594;-117.718;2023-03-17T07:28:44;100620.69;;;8.83;100.00
16525;BME280;8375;33.594;-117.718;2023-03-17T07:31:13;100603.81;;;8.77;100.00
16525;BME280;8375;33.594;-117.718;2023-03-17T07:33:42;100615.16;;;8.75;100.00
16525;BME280;8375;33.594;-117.718;2023-03-17T07:36:12;100615.75;;;8.65;100.00
16525;BME280;8375;33.594;-117.718;2023-03-17T07:38:41;100624.53;;;8.63;100.00
16525;BME280;8375;33.594;-117.718;2023-03-17T07:41:10;100618.91;;;8.56;100.00
16525;BME280;8375;33.594;-117.718;2023-03-17T07:43:39;100609.28;;;8.58;100.00
16525;BME280;8375;33.594;-117.718;2023-03-17T07:46:07;100605.69;;;8.61;100.00
16525;BME280;8375;33.594;-117.718;2023-03-17T07:48:36;100605.56;;;8.62;100.00
16525;BME280;8375;33.594;-117.718;2023-03-17T07:51:13;100603.09;;;8.61;100.00
16525;BME280;8375;33.594;-117.718;2023-03-17T07:53:42;100605.69;;;8.61;100.00
16525;BME280;8375;33.594;-117.718;2023-03-17T07:56:11;100602.44;;;8.57;100.00
16525;BME280;8375;33.594;-117.718;2023-03-17T07:58:40;100616.31;;;8.56;100.00
16525;BME280;8375;33.594;-117.718;2023-03-17T08:01:09;100616.75;;;8.48;100.00
16525;BME280;8375;33.594;-117.718;2023-03-17T08:03:38;100611.59;;;8.48;100.00
16525;BME280;8375;33.594;-117.718;2023-03-17T08:06:07;100614.44;;;8.44;100.00
16525;BME280;8375;33.594;-117.718;2023-03-17T08:08:37;100608.91;;;8.35;100.00
16525;BME280;8375;33.594;-117.718;2023-03-17T08:11:06;100603.00;;;8.33;100.00
16525;BME280;8375;33.594;-117.718;2023-03-17T08:13:35;100605.22;;;8.40;100.00
16525;BME280;8375;33.594;-117.718;2023-03-17T08:16:04;100602.06;;;8.34;100.00
16525;BME280;8375;33.594;-117.718;2023-03-17T08:18:33;100609.19;;;8.31;100.00
16525;BME280;8375;33.594;-117.718;2023-03-17T08:21:02;100607.63;;;8.28;100.00
16525;BME280;8375;33.594;-117.718;2023-03-17T08:23:31;100600.97;;;8.24;100.00
16525;BME280;8375;33.594;-117.718;2023-03-17T08:26:02;100598.56;;;8.21;100.00
16525;BME280;8375;33.594;-117.718;2023-03-17T08:28:32;100599.59;;;8.18;100.00
16525;BME280;8375;33.594;-117.718;2023-03-17T08:31:08;100604.78;;;8.18;100.00
16525;BME280;8375;33.594;-117.718;2023-03-17T08:33:38;100603.94;;;8.18;100.00
16525;BME280;8375;33.594;-117.718;2023-03-17T08:36:08;100594.31;;;8.20;100.00
16525;BME280;8375;33.594;-117.718;2023-03-17T08:38:39;100595.72;;;8.26;100.00
16525;BME280;8375;33.594;-117.718;2023-03-17T08:41:12;100597.56;;;8.24;100.00
16525;BME280;8375;33.594;-117.718;2023-03-17T08:43:42;100594.59;;;8.30;100.00
16525;BME280;8375;33.594;-117.718;2023-03-17T08:46:15;100600.78;;;8.27;100.00
16525;BME280;8375;33.594;-117.718;2023-03-17T08:48:44;100600.97;;;8.24;100.00
16525;BME280;8375;33.594;-117.718;2023-03-17T08:51:14;100589.34;;;8.17;100.00
16525;BME280;8375;33.594;-117.718;2023-03-17T08:53:43;100583.78;;;7.94;100.00
16525;BME280;8375;33.594;-117.718;2023-03-17T08:56:14;100584.22;;;7.72;100.00
16525;BME280;8375;33.594;-117.718;2023-03-17T08:58:44;100590.97;;;7.74;100.00
16525;BME280;8375;33.594;-117.718;2023-03-17T09:01:13;100594.19;;;7.78;100.00
16525;BME280;8375;33.594;-117.718;2023-03-17T09:03:43;100586.25;;;7.81;100.00
16525;BME280;8375;33.594;-117.718;2023-03-17T09:06:12;100580.91;;;7.84;100.00
16525;BME280;8375;33.594;-117.718;2023-03-17T09:08:42;100579.72;;;7.90;100.00
16525;BME280;8375;33.594;-117.718;2023-03-17T09:11:16;100570.94;;;7.92;100.00
16525;BME280;8375;33.594;-117.718;2023-03-17T09:13:46;100576.84;;;7.95;100.00
16525;BME280;8375;33.594;-117.718;2023-03-17T09:16:15;100575.66;;;8.00;100.00
16525;BME280;8375;33.594;-117.718;2023-03-17T09:18:44;100570.78;;;8.10;100.00
16525;BME280;8375;33.594;-117.718;2023-03-17T09:21:14;100569.75;;;8.13;100.00
16525;BME280;8375;33.594;-117.718;2023-03-17T09:23:43;100571.97;;;8.04;100.00
16525;BME280;8375;33.594;-117.718;2023-03-17T09:26:13;100565.63;;;8.10;100.00
16525;BME280;8375;33.594;-117.718;2023-03-17T09:28:42;100557.00;;;8.10;100.00
16525;BME280;8375;33.594;-117.718;2023-03-17T09:31:11;100548.81;;;8.03;100.00
16525;BME280;8375;33.594;-117.718;2023-03-17T09:33:40;100552.31;;;8.02;100.00
16525;BME280;8375;33.594;-117.718;2023-03-17T09:36:10;100556.66;;;8.01;100.00
16525;BME280;8375;33.594;-117.718;2023-03-17T09:38:39;100558.31;;;8.02;100.00
16525;BME280;8375;33.594;-117.718;2023-03-17T09:41:33;100556.19;;;8.09;100.00
16525;BME280;8375;33.594;-117.718;2023-03-17T09:44:15;100551.94;;;8.08;100.00
16525;BME280;8375;33.594;-117.718;2023-03-17T09:46:51;100550.28;;;8.07;100.00
16525;BME280;8375;33.594;-117.718;2023-03-17T09:49:28;100550.38;;;8.05;100.00
16525;BME280;8375;33.594;-117.718;2023-03-17T09:52:03;100554.06;;;8.01;100.00
16525;BME280;8375;33.594;-117.718;2023-03-17T09:54:33;100552.59;;;7.97;100.00
16525;BME280;8375;33.594;-117.718;2023-03-17T09:57:11;100553.44;;;7.98;100.00
16525;BME280;8375;33.594;-117.718;2023-03-17T09:59:43;100537.63;;;8.02;100.00
16525;BME280;8375;33.594;-117.718;2023-03-17T10:02:17;100532.44;;;8.02;100.00
16525;BME280;8375;33.594;-117.718;2023-03-17T10:04:49;100518.91;;;7.99;100.00
16525;BME280;8375;33.594;-117.718;2023-03-17T10:07:22;100522.41;;;7.98;100.00
16525;BME280;8375;33.594;-117.718;2023-03-17T10:09:58;100529.31;;;7.97;100.00
16525;BME280;8375;33.594;-117.718;2023-03-17T10:12:40;100528.19;;;8.01;100.00
16525;BME280;8375;33.594;-117.718;2023-03-17T10:15:15;100521.91;;;8.05;100.00
16525;BME280;8375;33.594;-117.718;2023-03-17T10:17:45;100524.50;;;8.05;100.00
16525;BME280;8375;33.594;-117.718;2023-03-17T10:20:20;100516.56;;;8.08;100.00
16525;BME280;8375;33.594;-117.718;2023-03-17T10:22:53;100512.97;;;8.11;100.00
16525;BME280;8375;33.594;-117.718;2023-03-17T10:25:26;100509.66;;;8.09;100.00
16525;BME280;8375;33.594;-117.718;2023-03-17T10:27:59;100518.34;;;8.08;100.00
16525;BME280;8375;33.594;-117.718;2023-03-17T10:30:31;100508.25;;;8.03;100.00
16525;BME280;8375;33.594;-117.718;2023-03-17T10:33:03;100506.78;;;7.99;100.00
16525;BME280;8375;33.594;-117.718;2023-03-17T10:35:32;100505.31;;;7.95;100.00
16525;BME280;8375;33.594;-117.718;2023-03-17T10:38:04;100510.84;;;7.89;100.00
16525;BME280;8375;33.594;-117.718;2023-03-17T10:40:45;100510.84;;;7.89;100.00
16525;BME280;8375;33.594;-117.718;2023-03-17T10:43:20;100503.66;;;7.94;100.00
16525;BME280;8375;33.594;-117.718;2023-03-17T10:45:59;100497.75;;;7.92;100.00
16525;BME280;8375;33.594;-117.718;2023-03-17T10:48:29;100499.03;;;7.85;100.00
16525;BME280;8375;33.594;-117.718;2023-03-17T10:50:59;100504.41;;;7.82;100.00
16525;BME280;8375;33.594;-117.718;2023-03-17T10:53:36;100503.28;;;7.86;100.00
16525;BME280;8375;33.594;-117.718;2023-03-17T10:56:13;100501.06;;;7.80;100.00
16525;BME280;8375;33.594;-117.718;2023-03-17T10:58:49;100489.44;;;7.72;100.00
16525;BME280;8375;33.594;-117.718;2023-03-17T11:01:21;100484.66;;;7.66;100.00
16525;BME280;8375;33.594;-117.718;2023-03-17T11:03:55;100479.84;;;7.60;100.00
16525;BME280;8375;33.594;-117.718;2023-03-17T11:06:32;100485.56;;;7.51;100.00
16525;BME280;8375;33.594;-117.718;2023-03-17T11:09:07;100490.06;;;7.47;100.00
16525;BME280;8375;33.594;-117.718;2023-03-17T11:11:43;100486.00;;;7.43;100.00
16525;BME280;8375;33.594;-117.718;2023-03-17T11:14:15;100485.38;;;7.39;100.00
16525;BME280;8375;33.594;-117.718;2023-03-17T11:16:52;100485.53;;;7.36;100.00
16525;BME280;8375;33.594;-117.718;2023-03-17T11:19:27;100488.13;;;7.36;100.00
16525;BME280;8375;33.594;-117.718;2023-03-17T11:22:02;100482.28;;;7.32;100.00
16525;BME280;8375;33.594;-117.718;2023-03-17T11:24:43;100482.28;;;7.32;100.00
16525;BME280;8375;33.594;-117.718;2023-03-17T11:27:21;100490.50;;;7.25;100.00
16525;BME280;8375;33.594;-117.718;2023-03-17T11:30:12;100483.50;;;7.27;100.00
16525;BME280;8375;33.594;-117.718;2023-03-17T11:32:46;100479.16;;;7.27;100.00
16525;BME280;8375;33.594;-117.718;2023-03-17T11:35:29;100474.28;;;7.23;100.00
16525;BME280;8375;33.594;-117.718;2023-03-17T11:38:18;100475.84;;;7.25;100.00
16525;BME280;8375;33.594;-117.718;2023-03-17T11:41:14;100472.69;;;7.20;100.00
16525;BME280;8375;33.594;-117.718;2023-03-17T11:44:02;100477.84;;;7.20;100.00
16525;BME280;8375;33.594;-117.718;2023-03-17T11:46:40;100480.44;;;7.20;100.00
16525;BME280;8375;33.594;-117.718;2023-03-17T11:49:12;100471.69;;;7.23;100.00
16525;BME280;8375;33.594;-117.718;2023-03-17T11:51:50;100470.66;;;7.25;100.00
16525;BME280;8375;33.594;-117.718;2023-03-17T11:54:33;100472.50;;;7.23;100.00
16525;BME280;8375;33.594;-117.718;2023-03-17T11:57:09;100461.72;;;7.16;100.00
16525;BME280;8375;33.594;-117.718;2023-03-17T11:59:45;100466.03;;;7.16;100.00
16525;BME280;8375;33.594;-117.718;2023-03-17T12:02:24;100466.22;;;7.13;100.00
16525;BME280;8375;33.594;-117.718;2023-03-17T12:04:59;100469.66;;;7.13;100.00
16525;BME280;8375;33.594;-117.718;2023-03-17T12:07:32;100472.41;;;7.10;100.00
16525;BME280;8375;33.594;-117.718;2023-03-17T12:10:12;100475.06;;;7.09;100.00
16525;BME280;8375;33.594;-117.718;2023-03-17T12:12:48;100476.09;;;7.06;100.00
16525;BME280;8375;33.594;-117.718;2023-03-17T12:15:24;100476.72;;;7.10;100.00
16525;BME280;8375;33.594;-117.718;2023-03-17T12:18:00;100477.00;;;7.05;100.00
16525;BME280;8375;33.594;-117.718;2023-03-17T12:20:32;100481.25;;;7.06;100.00
16525;BME280;8375;33.594;-117.718;2023-03-17T12:23:05;100474.50;;;7.03;100.00
16525;BME280;8375;33.594;-117.718;2023-03-17T12:25:47;100480.78;;;7.14;100.00
16525;BME280;8375;33.594;-117.718;2023-03-17T12:28:20;100481.34;;;7.19;100.00
16525;BME280;8375;33.594;-117.718;2023-03-17T12:30:54;100481.91;;;7.24;100.00
16525;BME280;8375;33.594;-117.718;2023-03-17T12:33:29;100481.84;;;7.26;100.00
16525;BME280;8375;33.594;-117.718;2023-03-17T12:36:03;100485.34;;;7.25;100.00
16525;BME280;8375;33.594;-117.718;2023-03-17T12:38:36;100492.72;;;7.31;100.00
16525;BME280;8375;33.594;-117.718;2023-03-17T12:41:24;100493.72;;;7.28;100.00
16525;BME280;8375;33.594;-117.718;2023-03-17T12:44:02;100485.94;;;7.44;100.00
16525;BME280;8375;33.594;-117.718;2023-03-17T12:46:46;100490.78;;;7.34;100.00
16525;BME280;8375;33.594;-117.718;2023-03-17T12:49:39;100482.03;;;7.37;100.00
16525;BME280;8375;33.594;-117.718;2023-03-17T12:52:32;100485.06;;;7.44;100.00